createdAt,value
2022-11-26T00:01:17.311Z,7.90
2022-11-26T00:03:44.051Z,7.30
2022-11-26T00:06:26.358Z,8.05
2022-11-26T00:08:53.136Z,8.05
2022-11-26T00:11:19.788Z,7.18
2022-11-26T00:13:46.336Z,7.07
2022-11-26T00:16:14.466Z,7.80
2022-11-26T00:18:44.091Z,7.38
2022-11-26T00:23:57.249Z,7.05
2022-11-26T00:26:24.994Z,7.15
2022-11-26T00:29:00.313Z,6.70
2022-11-26T00:31:28.635Z,7.35
2022-11-26T00:33:55.306Z,7.10
2022-11-26T00:36:25.126Z,7.65
2022-11-26T00:39:19.410Z,7.05
2022-11-26T00:41:51.467Z,6.75
2022-11-26T00:44:22.129Z,7.43
2022-11-26T00:46:49.449Z,7.03
2022-11-26T00:49:16.770Z,6.57
2022-11-26T00:51:43.459Z,7.50
2022-11-26T00:54:13.310Z,6.85
2022-11-26T00:56:40.098Z,6.88
2022-11-26T00:59:06.642Z,7.53
2022-11-26T01:01:33.304Z,7.32
2022-11-26T01:03:59.895Z,6.95
2022-11-26T01:06:31.968Z,7.00
2022-11-26T01:08:58.556Z,7.00
2022-11-26T01:11:25.351Z,7.35
2022-11-26T01:13:53.265Z,7.03
2022-11-26T01:16:28.937Z,7.07
2022-11-26T01:18:58.086Z,7.00
2022-11-26T01:21:26.660Z,6.45
2022-11-26T01:23:53.371Z,5.93
2022-11-26T01:26:22.401Z,7.38
2022-11-26T01:28:49.583Z,5.90
2022-11-26T01:31:18.585Z,7.30
2022-11-26T01:33:45.387Z,6.07
2022-11-26T01:36:33.106Z,6.15
2022-11-26T01:39:20.823Z,7.18
2022-11-26T01:42:18.643Z,6.65
2022-11-26T01:44:45.451Z,6.30
2022-11-26T01:47:20.422Z,7.20
2022-11-26T01:50:24.599Z,6.82
2022-11-26T01:52:52.202Z,5.75
2022-11-26T01:55:19.257Z,7.00
2022-11-26T01:57:46.064Z,7.35
2022-11-26T02:00:13.354Z,6.70
2022-11-26T02:02:40.553Z,7.15
2022-11-26T02:05:21.294Z,6.82
2022-11-26T02:07:48.073Z,7.85
2022-11-26T02:10:15.198Z,7.18
2022-11-26T02:12:42.421Z,6.95
2022-11-26T02:15:10.411Z,7.80
2022-11-26T02:17:47.796Z,8.18
2022-11-26T02:20:39.235Z,7.78
2022-11-26T02:23:34.772Z,8.00
2022-11-26T02:26:04.112Z,7.88
2022-11-26T02:28:45.615Z,7.75
2022-11-26T02:31:16.810Z,8.35
2022-11-26T02:33:46.531Z,8.27
2022-11-26T02:36:41.558Z,7.65
2022-11-26T02:39:17.881Z,7.68
2022-11-26T02:41:46.455Z,8.05
2022-11-26T02:44:18.607Z,9.10
2022-11-26T02:46:49.457Z,8.50
2022-11-26T02:49:20.688Z,8.15
2022-11-26T02:51:50.273Z,7.90
2022-11-26T02:56:43.437Z,8.15
2022-11-26T02:59:10.178Z,8.65
2022-11-26T03:01:40.596Z,7.97
2022-11-26T03:04:10.051Z,8.80
2022-11-26T03:09:04.288Z,7.57
2022-11-26T03:11:30.847Z,8.23
2022-11-26T03:13:57.381Z,8.50
2022-11-26T03:16:23.988Z,7.30
2022-11-26T03:18:50.802Z,7.70
2022-11-26T03:21:17.369Z,7.60
2022-11-26T03:23:43.907Z,8.85
2022-11-26T03:26:10.476Z,8.32
2022-11-26T03:28:37.030Z,8.07
2022-11-26T03:31:03.534Z,7.60
2022-11-26T03:33:30.123Z,8.45
2022-11-26T03:35:56.676Z,8.73
2022-11-26T03:38:23.231Z,7.07
2022-11-26T03:41:03.814Z,8.23
2022-11-26T03:43:30.318Z,7.97
2022-11-26T03:45:57.344Z,8.55
2022-11-26T03:48:23.954Z,8.00
2022-11-26T03:50:50.469Z,8.38
2022-11-26T03:53:17.027Z,7.78
2022-11-26T03:55:43.534Z,7.60
2022-11-26T03:58:10.095Z,7.47
2022-11-26T04:00:36.614Z,7.10
2022-11-26T04:03:03.559Z,7.22
2022-11-26T04:05:30.194Z,7.53
2022-11-26T04:07:56.720Z,8.65
2022-11-26T04:10:23.323Z,8.02
2022-11-26T04:12:49.861Z,8.00
2022-11-26T04:15:16.755Z,7.85
2022-11-26T04:17:43.338Z,8.65
2022-11-26T04:20:10.235Z,7.68
2022-11-26T04:22:36.716Z,8.18
2022-11-26T04:25:03.569Z,7.75
2022-11-26T04:27:30.115Z,7.13
2022-11-26T04:29:56.585Z,7.45
2022-11-26T04:32:23.393Z,7.78
2022-11-26T04:34:49.920Z,7.85
2022-11-26T04:37:16.606Z,7.05
2022-11-26T04:39:43.136Z,7.82
2022-11-26T04:42:09.642Z,7.60
2022-11-26T04:44:36.377Z,8.10
2022-11-26T04:47:03.169Z,6.78
2022-11-26T04:49:29.697Z,8.10
2022-11-26T04:51:56.503Z,7.88
2022-11-26T04:54:23.071Z,8.38
2022-11-26T04:56:49.886Z,7.75
2022-11-26T04:59:16.664Z,7.28
2022-11-26T05:01:43.199Z,7.60
2022-11-26T05:04:09.782Z,7.13
2022-11-26T05:06:36.272Z,7.13
2022-11-26T05:09:03.427Z,7.05
2022-11-26T05:11:29.955Z,8.30
2022-11-26T05:13:56.533Z,7.68
2022-11-26T05:16:23.112Z,7.55
2022-11-26T05:18:49.617Z,7.57
2022-11-26T05:21:16.122Z,7.30
2022-11-26T05:23:42.666Z,8.20
2022-11-26T05:26:09.199Z,8.32
2022-11-26T05:28:35.716Z,8.07
2022-11-26T05:31:03.514Z,8.23
2022-11-26T05:33:30.639Z,7.38
2022-11-26T05:35:57.299Z,7.22
2022-11-26T05:38:24.363Z,7.35
2022-11-26T05:40:51.029Z,7.55
2022-11-26T05:43:17.936Z,7.10
2022-11-26T05:45:44.515Z,7.53
2022-11-26T05:48:11.329Z,8.43
2022-11-26T05:50:37.934Z,6.97
2022-11-26T05:53:05.041Z,7.55
2022-11-26T05:55:31.608Z,6.63
2022-11-26T05:57:58.221Z,7.35
2022-11-26T06:00:25.007Z,7.97
2022-11-26T06:02:51.605Z,7.47
2022-11-26T06:05:18.253Z,7.20
2022-11-26T06:07:45.315Z,6.40
2022-11-26T06:10:12.980Z,7.45
2022-11-26T06:12:39.578Z,7.00
2022-11-26T06:15:06.657Z,7.05
2022-11-26T06:17:33.152Z,7.80
2022-11-26T06:20:00.013Z,7.00
2022-11-26T06:22:26.879Z,7.70
2022-11-26T06:24:53.435Z,6.78
2022-11-26T06:27:19.946Z,6.93
2022-11-26T06:29:46.484Z,7.57
2022-11-26T06:32:12.922Z,6.45
2022-11-26T06:34:40.915Z,6.95
2022-11-26T06:37:10.150Z,6.70
2022-11-26T06:39:36.651Z,6.70
2022-11-26T06:42:03.235Z,7.05
2022-11-26T06:44:29.729Z,7.68
2022-11-26T06:46:56.236Z,7.70
2022-11-26T06:49:22.711Z,6.90
2022-11-26T06:51:49.231Z,6.97
2022-11-26T06:54:15.709Z,6.65
2022-11-26T06:56:42.171Z,6.68
2022-11-26T06:59:08.638Z,5.60
2022-11-26T07:01:35.622Z,6.82
2022-11-26T07:04:02.365Z,7.03
2022-11-26T07:06:31.095Z,6.15
2022-11-26T07:08:59.871Z,6.50
2022-11-26T07:11:26.597Z,6.05
2022-11-26T07:13:53.476Z,6.10
2022-11-26T07:16:20.318Z,5.60
2022-11-26T07:18:51.569Z,6.50
2022-11-26T07:21:19.143Z,6.50
2022-11-26T07:23:45.742Z,6.78
2022-11-26T07:26:13.786Z,6.32
2022-11-26T07:28:40.844Z,6.70
2022-11-26T07:31:15.878Z,6.82
2022-11-26T07:33:43.390Z,5.70
2022-11-26T07:36:14.931Z,5.95
2022-11-26T07:38:41.528Z,5.50
2022-11-26T07:41:11.177Z,5.38
2022-11-26T07:43:38.942Z,5.20
2022-11-26T07:46:07.260Z,6.30
2022-11-26T07:48:34.898Z,6.13
2022-11-26T07:51:02.510Z,6.32
2022-11-26T07:53:30.453Z,6.45
2022-11-26T07:55:57.575Z,6.82
2022-11-26T07:58:24.689Z,8.32
2022-11-26T08:00:54.638Z,7.80
2022-11-26T08:03:21.680Z,7.65
2022-11-26T08:05:48.146Z,7.53
2022-11-26T08:08:14.686Z,6.78
2022-11-26T08:10:41.316Z,6.72
2022-11-26T08:13:07.852Z,6.32
2022-11-26T08:15:35.562Z,6.20
2022-11-26T08:18:02.150Z,5.80
2022-11-26T08:20:29.250Z,5.50
2022-11-26T08:22:55.983Z,5.47
2022-11-26T08:25:22.493Z,5.18
2022-11-26T08:27:49.114Z,4.65
2022-11-26T08:30:15.763Z,5.45
2022-11-26T08:32:42.307Z,4.80
2022-11-26T08:35:08.945Z,4.97
2022-11-26T08:37:35.478Z,5.22
2022-11-26T08:40:02.052Z,4.75
2022-11-26T08:42:28.993Z,4.88
2022-11-26T08:44:55.507Z,5.13
2022-11-26T08:47:22.143Z,4.55
2022-11-26T08:49:49.637Z,4.35
2022-11-26T08:52:16.243Z,5.25
2022-11-26T08:54:45.251Z,4.70
2022-11-26T08:57:12.184Z,4.65
2022-11-26T08:59:38.659Z,4.97
2022-11-26T09:02:05.230Z,4.40
2022-11-26T09:04:32.095Z,4.50
2022-11-26T09:06:58.658Z,5.25
2022-11-26T09:09:25.360Z,4.90
2022-11-26T09:11:57.679Z,4.85
2022-11-26T09:14:26.325Z,4.28
2022-11-26T09:16:54.827Z,4.47
2022-11-26T09:19:21.546Z,4.37
2022-11-26T09:21:48.845Z,4.20
2022-11-26T09:24:16.676Z,4.47
2022-11-26T09:26:43.714Z,4.53
2022-11-26T09:29:14.309Z,4.43
2022-11-26T09:31:55.290Z,4.75
2022-11-26T09:34:27.702Z,4.40
2022-11-26T09:36:54.277Z,4.15
2022-11-26T09:39:20.825Z,4.40
2022-11-26T09:42:03.529Z,4.38
2022-11-26T09:44:51.785Z,4.07
2022-11-26T09:47:23.614Z,5.15
2022-11-26T09:50:01.185Z,5.47
2022-11-26T09:52:33.530Z,5.28
2022-11-26T09:55:05.909Z,4.05
2022-11-26T09:57:47.020Z,6.30
2022-11-26T10:00:29.080Z,5.35
2022-11-26T10:02:57.115Z,5.32
2022-11-26T10:05:56.418Z,4.75
2022-11-26T10:13:54.816Z,5.15
2022-11-26T10:16:28.483Z,5.40
2022-11-26T10:19:13.535Z,5.20
2022-11-26T10:21:58.547Z,5.15
2022-11-26T10:24:41.924Z,4.90
2022-11-26T10:27:15.148Z,4.70
2022-11-26T10:29:49.046Z,4.85
2022-11-26T10:32:15.575Z,5.00
2022-11-26T10:34:53.383Z,5.50
2022-11-26T10:37:21.962Z,4.93
2022-11-26T10:39:48.537Z,4.77
2022-11-26T10:42:18.707Z,4.60
2022-11-26T10:44:46.129Z,6.47
2022-11-26T10:47:28.468Z,5.35
2022-11-26T10:50:45.590Z,5.57
2022-11-26T10:53:05.318Z,5.67
2022-11-26T10:55:39.253Z,5.75
2022-11-26T10:58:13.204Z,5.07
2022-11-26T11:00:55.857Z,4.63
2022-11-26T11:03:38.514Z,4.45
2022-11-26T11:06:12.400Z,4.07
2022-11-26T11:08:39.013Z,3.85
2022-11-26T11:11:05.669Z,3.72
2022-11-26T11:13:43.335Z,3.55
2022-11-26T11:16:11.006Z,3.95
2022-11-26T11:18:38.048Z,3.97
2022-11-26T11:21:05.831Z,4.70
2022-11-26T11:24:07.294Z,5.50
2022-11-26T11:26:28.353Z,5.80
2022-11-26T11:28:55.339Z,5.95
2022-11-26T11:31:26.410Z,6.70
2022-11-26T11:34:12.934Z,8.30
2022-11-26T11:36:39.770Z,6.93
2022-11-26T11:39:06.329Z,6.38
2022-11-26T11:41:42.062Z,6.57
2022-11-26T11:44:39.846Z,7.07
2022-11-26T11:47:21.510Z,6.90
2022-11-26T11:49:58.535Z,7.65
2022-11-26T11:52:34.288Z,6.78
2022-11-26T11:55:12.873Z,6.35
2022-11-26T11:58:09.437Z,7.87
2022-11-26T12:01:06.545Z,7.20
2022-11-26T12:03:45.128Z,6.72
2022-11-26T12:06:33.944Z,6.32
2022-11-26T12:09:14.602Z,5.95
2022-11-26T12:11:44.038Z,6.53
2022-11-26T12:16:48.129Z,6.18
2022-11-26T12:19:30.025Z,5.70
2022-11-26T12:22:04.653Z,6.25
2022-11-26T12:24:35.582Z,6.30
2022-11-26T12:27:27.351Z,8.15
2022-11-26T12:29:57.888Z,7.20
2022-11-26T12:32:27.455Z,6.88
2022-11-26T12:34:57.561Z,7.07
2022-11-26T12:37:32.328Z,6.50
2022-11-26T12:40:06.562Z,7.03
2022-11-26T12:43:04.985Z,5.57
2022-11-26T12:45:55.293Z,6.10
2022-11-26T12:48:36.973Z,5.85
2022-11-26T12:51:18.895Z,6.05
2022-11-26T12:54:00.669Z,6.43
2022-11-26T12:56:55.408Z,6.05
2022-11-26T12:59:26.359Z,6.20
2022-11-26T13:01:52.987Z,5.85
2022-11-26T13:04:37.313Z,6.72
2022-11-26T13:07:19.865Z,6.63
2022-11-26T13:10:00.414Z,5.50
2022-11-26T13:12:46.725Z,6.57
2022-11-26T13:15:13.227Z,6.35
2022-11-26T13:17:50.044Z,7.10
2022-11-26T13:20:51.932Z,6.72
2022-11-26T13:23:33.621Z,6.75
2022-11-26T13:26:31.844Z,6.97
2022-11-26T13:29:24.640Z,7.25
2022-11-26T13:32:06.167Z,7.78
2022-11-26T13:34:49.368Z,7.75
2022-11-26T13:37:37.037Z,7.35
2022-11-26T13:40:32.819Z,7.80
2022-11-26T13:43:17.593Z,7.18
2022-11-26T13:46:00.338Z,7.47
2022-11-26T13:48:44.901Z,8.65
2022-11-26T13:51:36.209Z,8.75
2022-11-26T13:54:04.292Z,7.68
2022-11-26T13:56:32.424Z,9.07
2022-11-26T13:59:28.036Z,9.15
2022-11-26T14:01:55.168Z,9.15
2022-11-26T14:04:24.735Z,8.00
2022-11-26T14:09:41.969Z,7.85
2022-11-26T14:12:15.781Z,8.15
2022-11-26T14:14:46.882Z,8.48
2022-11-26T14:17:15.901Z,9.02
2022-11-26T14:19:42.550Z,10.70
2022-11-26T14:22:30.547Z,10.45
2022-11-26T14:25:00.380Z,10.43
2022-11-26T14:27:35.552Z,10.80
2022-11-26T14:30:08.447Z,11.35
2022-11-26T14:32:39.969Z,10.52
2022-11-26T14:35:21.562Z,11.27
2022-11-26T14:37:53.819Z,12.15
2022-11-26T14:40:25.103Z,12.20
2022-11-26T14:43:10.979Z,10.98
2022-11-26T14:45:37.729Z,11.98
2022-11-26T14:48:05.225Z,10.90
2022-11-26T14:50:33.460Z,11.52
2022-11-26T14:53:04.510Z,9.88
2022-11-26T14:55:31.835Z,10.50
2022-11-26T14:58:09.552Z,11.05
2022-11-26T15:00:36.733Z,10.30
2022-11-26T15:03:04.077Z,10.07
2022-11-26T15:05:33.211Z,10.27
2022-11-26T15:08:15.236Z,11.27
2022-11-26T15:10:55.753Z,10.38
2022-11-26T15:13:31.497Z,10.18
2022-11-26T15:16:00.462Z,9.70
2022-11-26T15:18:32.311Z,9.95
2022-11-26T15:21:00.891Z,9.48
2022-11-26T15:23:33.402Z,9.90
2022-11-26T15:26:00.868Z,9.43
2022-11-26T15:28:28.137Z,9.35
2022-11-26T15:30:58.771Z,9.73
2022-11-26T15:33:27.165Z,9.18
2022-11-26T15:36:02.771Z,9.43
2022-11-26T15:38:31.176Z,9.10
2022-11-26T15:41:26.777Z,9.60
2022-11-26T15:43:55.137Z,9.85
2022-11-26T15:46:25.373Z,9.48
2022-11-26T15:48:55.103Z,9.73
2022-11-26T15:51:41.461Z,9.13
2022-11-26T15:54:38.321Z,9.68
2022-11-26T15:57:24.428Z,10.13
2022-11-26T15:59:55.224Z,9.60
2022-11-26T16:02:23.966Z,9.98
2022-11-26T16:04:55.288Z,10.35
2022-11-26T16:07:27.759Z,10.63
2022-11-26T16:10:19.294Z,11.15
2022-11-26T16:13:17.668Z,11.20
2022-11-26T16:16:06.900Z,9.85
2022-11-26T16:18:39.312Z,10.35
2022-11-26T16:21:14.750Z,9.95
2022-11-26T16:23:41.836Z,9.60
2022-11-26T16:26:16.660Z,9.90
2022-11-26T16:28:44.559Z,9.30
2022-11-26T16:31:11.698Z,9.77
2022-11-26T16:33:38.662Z,9.30
2022-11-26T16:36:26.106Z,10.43
2022-11-26T16:38:53.337Z,10.65
2022-11-26T16:41:21.582Z,9.52
2022-11-26T16:43:48.937Z,9.32
2022-11-26T16:46:18.029Z,9.23
2022-11-26T16:48:45.752Z,9.50
2022-11-26T16:51:12.741Z,9.00
2022-11-26T16:53:39.544Z,9.60
2022-11-26T16:56:09.922Z,9.32
2022-11-26T16:58:38.013Z,9.18
2022-11-26T17:01:04.752Z,8.23
2022-11-26T17:03:33.355Z,8.95
2022-11-26T17:06:02.320Z,9.85
2022-11-26T17:08:30.179Z,9.38
2022-11-26T17:10:57.039Z,10.73
2022-11-26T17:13:23.516Z,10.55
2022-11-26T17:15:50.630Z,11.70
2022-11-26T17:18:23.235Z,11.43
2022-11-26T17:20:50.999Z,11.23
2022-11-26T17:23:17.877Z,10.73
2022-11-26T17:25:45.690Z,10.20
2022-11-26T17:28:13.554Z,10.52
2022-11-26T17:30:40.756Z,10.40
2022-11-26T17:33:08.105Z,10.32
2022-11-26T17:35:35.238Z,10.90
2022-11-26T17:38:02.220Z,9.65
2022-11-26T17:40:29.686Z,9.90
2022-11-26T17:42:56.604Z,10.00
2022-11-26T17:45:23.445Z,9.48
2022-11-26T17:47:50.025Z,9.40
2022-11-26T17:50:26.018Z,10.02
2022-11-26T17:52:53.247Z,10.05
2022-11-26T17:55:24.422Z,9.45
2022-11-26T17:57:51.580Z,9.45
2022-11-26T18:00:21.159Z,9.25
2022-11-26T18:05:14.556Z,8.45
2022-11-26T18:07:41.287Z,9.13
2022-11-26T18:10:12.763Z,9.52
2022-11-26T18:12:39.615Z,8.63
2022-11-26T18:15:07.725Z,9.13
2022-11-26T18:17:34.311Z,8.65
2022-11-26T18:20:01.151Z,8.50
2022-11-26T18:22:28.169Z,8.82
2022-11-26T18:24:57.176Z,9.43
2022-11-26T18:27:28.358Z,8.27
2022-11-26T18:29:54.865Z,7.85
2022-11-26T18:32:21.450Z,8.30
2022-11-26T18:34:53.407Z,8.07
2022-11-26T18:37:19.971Z,8.50
2022-11-26T18:39:46.611Z,8.20
2022-11-26T18:42:35.932Z,9.55
2022-11-26T18:45:03.471Z,8.75
2022-11-26T18:47:30.225Z,8.85
2022-11-26T18:49:56.756Z,7.53
2022-11-26T18:52:23.327Z,7.72
2022-11-26T18:54:49.910Z,8.60
2022-11-26T18:57:16.504Z,8.35
2022-11-26T18:59:46.761Z,8.38
2022-11-26T19:02:13.831Z,9.18
2022-11-26T19:04:40.756Z,9.63
2022-11-26T19:07:08.252Z,9.32
2022-11-26T19:09:34.904Z,9.85
2022-11-26T19:12:01.491Z,9.45
2022-11-26T19:14:28.091Z,9.60
2022-11-26T19:16:55.049Z,9.30
2022-11-26T19:19:21.899Z,10.10
2022-11-26T19:21:50.303Z,8.30
2022-11-26T19:24:17.323Z,8.00
2022-11-26T19:26:43.944Z,7.63
2022-11-26T19:29:12.433Z,7.97
2022-11-26T19:31:39.870Z,8.05
2022-11-26T19:34:09.975Z,7.38
2022-11-26T19:36:37.319Z,7.07
2022-11-26T19:39:05.397Z,6.72
2022-11-26T19:41:32.459Z,6.85
2022-11-26T19:44:00.604Z,7.03
2022-11-26T19:46:27.552Z,6.85
2022-11-26T19:48:56.429Z,7.93
2022-11-26T19:51:24.984Z,7.05
2022-11-26T19:53:52.815Z,7.50
2022-11-26T19:56:22.093Z,7.35
2022-11-26T19:58:48.627Z,6.70
2022-11-26T20:01:17.220Z,7.05
2022-11-26T20:03:44.001Z,7.33
2022-11-26T20:06:22.404Z,7.20
2022-11-26T20:08:49.205Z,6.75
2022-11-26T20:11:17.026Z,6.72
2022-11-26T20:13:44.581Z,6.43
2022-11-26T20:16:22.926Z,6.22
2022-11-26T20:18:50.033Z,6.85
2022-11-26T20:21:21.118Z,6.50
2022-11-26T20:23:48.763Z,6.60
2022-11-26T20:26:25.222Z,6.75
2022-11-26T20:28:52.708Z,6.93
2022-11-26T20:31:23.601Z,6.50
2022-11-26T20:33:52.743Z,7.32
2022-11-26T20:36:23.204Z,7.67
2022-11-26T20:38:59.380Z,7.60
2022-11-26T20:41:26.818Z,7.32
2022-11-26T20:43:58.489Z,6.25
2022-11-26T20:46:27.451Z,6.78
2022-11-26T20:48:54.445Z,7.25
2022-11-26T20:51:22.170Z,6.95
2022-11-26T20:53:52.452Z,7.13
2022-11-26T20:56:22.513Z,7.80
2022-11-26T20:58:49.955Z,7.07
2022-11-26T21:01:17.747Z,6.70
2022-11-26T21:03:44.947Z,7.05
2022-11-26T21:06:16.272Z,5.82
2022-11-26T21:08:43.255Z,6.93
2022-11-26T21:11:10.779Z,7.47
2022-11-26T21:13:38.645Z,7.68
2022-11-26T21:16:07.153Z,6.90
2022-11-26T21:18:34.237Z,7.13
2022-11-26T21:21:01.446Z,7.00
2022-11-26T21:23:27.986Z,7.47
2022-11-26T21:25:54.587Z,6.90
2022-11-26T21:28:21.217Z,7.22
2022-11-26T21:30:47.826Z,6.93
2022-11-26T21:33:14.739Z,6.88
2022-11-26T21:35:41.269Z,6.63
2022-11-26T21:38:07.809Z,7.28
2022-11-26T21:40:34.345Z,7.00
2022-11-26T21:43:00.904Z,7.22
2022-11-26T21:45:27.874Z,6.40
2022-11-26T21:47:54.675Z,6.95
2022-11-26T21:50:21.294Z,6.30
2022-11-26T21:52:47.865Z,6.10
2022-11-26T21:55:14.523Z,6.40
2022-11-26T21:57:41.118Z,6.10
2022-11-26T22:00:08.575Z,6.50
2022-11-26T22:02:35.235Z,6.60
2022-11-26T22:05:01.901Z,6.28
2022-11-26T22:07:30.186Z,6.28
2022-11-26T22:09:57.057Z,6.28
2022-11-26T22:12:23.628Z,6.60
2022-11-26T22:14:50.151Z,6.38
2022-11-26T22:17:16.926Z,5.68
2022-11-26T22:19:43.505Z,6.47
2022-11-26T22:22:10.141Z,5.93
2022-11-26T22:24:36.636Z,5.60
2022-11-26T22:27:03.545Z,5.85
2022-11-26T22:29:30.582Z,6.25
2022-11-26T22:31:57.142Z,6.75
2022-11-26T22:34:24.696Z,7.30
2022-11-26T22:36:51.358Z,6.53
2022-11-26T22:39:18.724Z,6.45
2022-11-26T22:41:46.440Z,6.35
2022-11-26T22:44:13.910Z,6.95
2022-11-26T22:46:40.526Z,6.03
2022-11-26T22:49:13.291Z,6.15
2022-11-26T22:51:40.026Z,6.22
2022-11-26T22:54:08.067Z,5.95
2022-11-26T22:56:37.830Z,6.30
2022-11-26T22:59:06.157Z,6.57
2022-11-26T23:01:34.071Z,5.85
2022-11-26T23:04:02.215Z,5.72
2022-11-26T23:06:30.230Z,6.65
2022-11-26T23:08:57.818Z,6.57
2022-11-26T23:11:27.125Z,6.32
2022-11-26T23:13:54.282Z,6.15
2022-11-26T23:16:21.901Z,6.72
2022-11-26T23:18:48.772Z,6.18
2022-11-26T23:21:21.311Z,6.65
2022-11-26T23:23:48.540Z,7.18
2022-11-26T23:26:23.179Z,6.68
2022-11-26T23:28:53.447Z,6.55
2022-11-26T23:31:22.504Z,7.65
2022-11-26T23:33:49.910Z,6.95
2022-11-26T23:36:17.034Z,5.85
2022-11-26T23:38:43.811Z,6.53
2022-11-26T23:41:10.448Z,6.97
2022-11-26T23:43:38.142Z,6.85
2022-11-26T23:46:06.750Z,6.72
2022-11-26T23:48:36.563Z,6.97
2022-11-26T23:51:08.157Z,6.75
2022-11-26T23:53:39.606Z,7.00
2022-11-26T23:56:08.825Z,7.20
2022-11-26T23:58:35.410Z,6.82
